sensor_id;sensor_type;location;lat;lon;timestamp;pressure;altitude;pressure_sealevel;temperature;humidity
54194;BME280;40102;50.906;6.972;2022-09-27T00:02:00;98970.22;;;12.11;81.25
54194;BME280;40102;50.906;6.972;2022-09-27T00:04:25;98979.13;;;12.21;80.94
54194;BME280;40102;50.906;6.972;2022-09-27T00:06:51;98975.16;;;12.16;81.04
54194;BME280;40102;50.906;6.972;2022-09-27T00:09:17;98974.00;;;12.09;81.40
54194;BME280;40102;50.906;6.972;2022-09-27T00:11:42;98970.34;;;12.10;81.08
54194;BME280;40102;50.906;6.972;2022-09-27T00:14:10;98979.25;;;12.10;80.86
54194;BME280;40102;50.906;6.972;2022-09-27T00:16:39;98992.50;;;12.12;80.95
54194;BME280;40102;50.906;6.972;2022-09-27T00:19:13;98994.47;;;12.10;80.83
54194;BME280;40102;50.906;6.972;2022-09-27T00:21:39;99000.53;;;12.12;80.89
54194;BME280;40102;50.906;6.972;2022-09-27T00:24:05;98992.34;;;12.04;80.67
54194;BME280;40102;50.906;6.972;2022-09-27T00:26:31;99004.91;;;12.13;80.22
54194;BME280;40102;50.906;6.972;2022-09-27T00:28:57;99004.63;;;12.06;80.14
54194;BME280;40102;50.906;6.972;2022-09-27T00:31:24;99004.75;;;12.05;80.08
54194;BME280;40102;50.906;6.972;2022-09-27T00:33:53;99011.66;;;12.07;79.50
54194;BME280;40102;50.906;6.972;2022-09-27T00:36:20;99009.66;;;11.99;79.62
54194;BME280;40102;50.906;6.972;2022-09-27T00:38:46;99007.72;;;12.02;79.77
54194;BME280;40102;50.906;6.972;2022-09-27T00:41:19;99013.06;;;12.02;79.79
54194;BME280;40102;50.906;6.972;2022-09-27T00:43:50;99008.69;;;12.00;80.05
54194;BME280;40102;50.906;6.972;2022-09-27T00:46:30;99000.91;;;11.97;80.29
54194;BME280;40102;50.906;6.972;2022-09-27T00:49:10;99017.72;;;11.99;80.13
54194;BME280;40102;50.906;6.972;2022-09-27T00:51:39;99019.13;;;12.04;80.25
54194;BME280;40102;50.906;6.972;2022-09-27T00:54:08;99007.25;;;11.96;80.42
54194;BME280;40102;50.906;6.972;2022-09-27T00:56:36;99010.94;;;11.95;80.48
54194;BME280;40102;50.906;6.972;2022-09-27T00:59:08;99014.59;;;11.94;80.84
54194;BME280;40102;50.906;6.972;2022-09-27T01:01:35;99024.19;;;11.97;80.73
54194;BME280;40102;50.906;6.972;2022-09-27T01:04:12;99016.00;;;11.98;80.40
54194;BME280;40102;50.906;6.972;2022-09-27T01:06:38;99019.94;;;11.94;80.51
54194;BME280;40102;50.906;6.972;2022-09-27T01:09:05;99012.59;;;11.87;80.90
54194;BME280;40102;50.906;6.972;2022-09-27T01:11:45;99030.66;;;11.94;81.07
54194;BME280;40102;50.906;6.972;2022-09-27T01:20:11;99036.97;;;11.84;81.66
54194;BME280;40102;50.906;6.972;2022-09-27T01:30:41;99029.84;;;11.73;81.29
54194;BME280;40102;50.906;6.972;2022-09-27T01:33:33;99030.38;;;11.67;81.51
54194;BME280;40102;50.906;6.972;2022-09-27T01:39:39;99020.00;;;11.53;82.02
54194;BME280;40102;50.906;6.972;2022-09-27T01:42:36;99045.41;;;11.58;82.30
54194;BME280;40102;50.906;6.972;2022-09-27T01:45:07;99040.03;;;11.58;82.59
54194;BME280;40102;50.906;6.972;2022-09-27T01:47:43;99032.94;;;11.48;82.34
54194;BME280;40102;50.906;6.972;2022-09-27T01:50:14;99031.94;;;11.49;82.42
54194;BME280;40102;50.906;6.972;2022-09-27T01:53:13;99019.28;;;11.51;82.07
54194;BME280;40102;50.906;6.972;2022-09-27T01:55:37;99047.28;;;11.67;81.76
54194;BME280;40102;50.906;6.972;2022-09-27T01:58:21;99046.56;;;11.65;81.20
54194;BME280;40102;50.906;6.972;2022-09-27T02:00:49;99052.59;;;11.58;82.10
54194;BME280;40102;50.906;6.972;2022-09-27T02:03:39;99040.44;;;11.54;82.57
54194;BME280;40102;50.906;6.972;2022-09-27T02:06:11;99047.22;;;11.58;82.72
54194;BME280;40102;50.906;6.972;2022-09-27T02:08:54;99038.47;;;11.56;81.84
54194;BME280;40102;50.906;6.972;2022-09-27T02:11:22;99032.00;;;11.58;81.81
54194;BME280;40102;50.906;6.972;2022-09-27T02:13:53;99036.69;;;11.66;81.21
54194;BME280;40102;50.906;6.972;2022-09-27T02:19:00;99049.38;;;11.64;81.21
54194;BME280;40102;50.906;6.972;2022-09-27T02:21:54;99054.88;;;11.62;81.67
54194;BME280;40102;50.906;6.972;2022-09-27T02:24:31;99040.69;;;11.51;82.17
54194;BME280;40102;50.906;6.972;2022-09-27T02:27:13;99052.13;;;11.53;81.92
54194;BME280;40102;50.906;6.972;2022-09-27T02:29:49;99038.75;;;11.53;81.63
54194;BME280;40102;50.906;6.972;2022-09-27T02:32:17;99047.94;;;11.60;81.30
54194;BME280;40102;50.906;6.972;2022-09-27T02:34:44;99063.03;;;11.61;81.24
54194;BME280;40102;50.906;6.972;2022-09-27T02:37:11;99061.72;;;11.55;81.76
54194;BME280;40102;50.906;6.972;2022-09-27T02:39:37;99043.19;;;11.43;82.16
54194;BME280;40102;50.906;6.972;2022-09-27T02:42:03;99054.53;;;11.35;82.34
54194;BME280;40102;50.906;6.972;2022-09-27T02:44:29;99057.81;;;11.39;82.46
54194;BME280;40102;50.906;6.972;2022-09-27T02:53:09;99060.34;;;11.19;83.10
54194;BME280;40102;50.906;6.972;2022-09-27T02:55:57;99066.16;;;11.24;83.45
54194;BME280;40102;50.906;6.972;2022-09-27T02:58:45;99053.63;;;11.25;82.92
54194;BME280;40102;50.906;6.972;2022-09-27T03:01:23;99057.16;;;11.25;82.24
54194;BME280;40102;50.906;6.972;2022-09-27T03:04:04;99067.66;;;11.38;82.47
54194;BME280;40102;50.906;6.972;2022-09-27T03:06:33;99068.13;;;11.43;81.49
54194;BME280;40102;50.906;6.972;2022-09-27T03:09:00;99066.69;;;11.39;81.72
54194;BME280;40102;50.906;6.972;2022-09-27T03:11:25;99076.22;;;11.32;82.50
54194;BME280;40102;50.906;6.972;2022-09-27T03:13:51;99073.69;;;11.30;82.45
54194;BME280;40102;50.906;6.972;2022-09-27T03:16:16;99087.78;;;11.32;82.12
54194;BME280;40102;50.906;6.972;2022-09-27T03:18:42;99084.13;;;11.33;81.90
54194;BME280;40102;50.906;6.972;2022-09-27T03:21:07;99078.50;;;11.36;81.50
54194;BME280;40102;50.906;6.972;2022-09-27T03:23:33;99087.72;;;11.44;81.18
54194;BME280;40102;50.906;6.972;2022-09-27T03:26:01;99074.00;;;11.37;80.78
54194;BME280;40102;50.906;6.972;2022-09-27T03:28:27;99079.50;;;11.35;80.53
54194;BME280;40102;50.906;6.972;2022-09-27T03:30:54;99097.72;;;11.42;80.88
54194;BME280;40102;50.906;6.972;2022-09-27T03:33:19;99106.50;;;11.32;80.68
54194;BME280;40102;50.906;6.972;2022-09-27T03:35:45;99112.00;;;11.31;80.95
54194;BME280;40102;50.906;6.972;2022-09-27T03:38:10;99101.09;;;11.23;81.46
54194;BME280;40102;50.906;6.972;2022-09-27T03:40:36;99101.81;;;11.25;80.95
54194;BME280;40102;50.906;6.972;2022-09-27T03:43:02;99100.09;;;11.24;80.43
54194;BME280;40102;50.906;6.972;2022-09-27T03:45:27;99110.81;;;11.24;80.60
54194;BME280;40102;50.906;6.972;2022-09-27T03:47:53;99106.56;;;11.21;80.25
54194;BME280;40102;50.906;6.972;2022-09-27T03:50:19;99113.16;;;11.17;80.68
54194;BME280;40102;50.906;6.972;2022-09-27T03:52:44;99094.97;;;11.00;81.61
54194;BME280;40102;50.906;6.972;2022-09-27T03:55:10;99113.81;;;10.98;81.60
54194;BME280;40102;50.906;6.972;2022-09-27T03:57:36;99110.81;;;10.92;81.11
54194;BME280;40102;50.906;6.972;2022-09-27T04:00:03;99122.34;;;10.92;82.10
54194;BME280;40102;50.906;6.972;2022-09-27T04:02:29;99123.81;;;10.96;81.83
54194;BME280;40102;50.906;6.972;2022-09-27T04:04:54;99100.38;;;10.89;81.30
54194;BME280;40102;50.906;6.972;2022-09-27T04:07:20;99104.38;;;10.83;81.43
54194;BME280;40102;50.906;6.972;2022-09-27T04:09:45;99126.97;;;10.90;81.69
54194;BME280;40102;50.906;6.972;2022-09-27T04:12:11;99113.78;;;10.78;81.74
54194;BME280;40102;50.906;6.972;2022-09-27T04:14:37;99118.63;;;10.84;82.29
54194;BME280;40102;50.906;6.972;2022-09-27T04:17:02;99101.38;;;10.77;81.97
54194;BME280;40102;50.906;6.972;2022-09-27T04:19:28;99127.84;;;10.91;80.94
54194;BME280;40102;50.906;6.972;2022-09-27T04:21:53;99116.41;;;10.89;80.59
54194;BME280;40102;50.906;6.972;2022-09-27T04:24:19;99098.59;;;10.67;80.97
54194;BME280;40102;50.906;6.972;2022-09-27T04:26:44;99111.00;;;10.68;81.78
54194;BME280;40102;50.906;6.972;2022-09-27T04:29:09;99108.09;;;10.60;81.88
54194;BME280;40102;50.906;6.972;2022-09-27T04:31:35;99116.72;;;10.52;81.41
54194;BME280;40102;50.906;6.972;2022-09-27T04:34:03;99119.41;;;10.52;82.09
54194;BME280;40102;50.906;6.972;2022-09-27T04:36:29;99124.97;;;10.60;82.47
54194;BME280;40102;50.906;6.972;2022-09-27T04:38:56;99116.34;;;10.57;81.35
54194;BME280;40102;50.906;6.972;2022-09-27T04:41:22;99116.13;;;10.49;81.03
54194;BME280;40102;50.906;6.972;2022-09-27T04:43:50;99122.69;;;10.45;82.07
54194;BME280;40102;50.906;6.972;2022-09-27T04:46:15;99126.81;;;10.49;82.51
54194;BME280;40102;50.906;6.972;2022-09-27T04:48:41;99134.69;;;10.61;82.03
54194;BME280;40102;50.906;6.972;2022-09-27T04:51:06;99130.56;;;10.57;80.91
54194;BME280;40102;50.906;6.972;2022-09-27T04:53:32;99128.28;;;10.53;81.09
54194;BME280;40102;50.906;6.972;2022-09-27T04:55:58;99127.44;;;10.52;81.54
54194;BME280;40102;50.906;6.972;2022-09-27T04:58:24;99139.69;;;10.55;81.53
54194;BME280;40102;50.906;6.972;2022-09-27T05:00:50;99161.91;;;10.66;80.63
54194;BME280;40102;50.906;6.972;2022-09-27T05:03:20;99133.25;;;10.46;81.28
54194;BME280;40102;50.906;6.972;2022-09-27T05:05:46;99159.13;;;10.57;81.08
54194;BME280;40102;50.906;6.972;2022-09-27T05:08:44;99160.84;;;10.58;81.47
54194;BME280;40102;50.906;6.972;2022-09-27T05:11:10;99144.44;;;10.51;80.75
54194;BME280;40102;50.906;6.972;2022-09-27T05:13:35;99158.41;;;10.44;81.24
54194;BME280;40102;50.906;6.972;2022-09-27T05:16:04;99156.16;;;10.39;81.60
54194;BME280;40102;50.906;6.972;2022-09-27T05:18:29;99168.00;;;10.57;81.48
54194;BME280;40102;50.906;6.972;2022-09-27T05:20:58;99165.34;;;10.57;80.60
54194;BME280;40102;50.906;6.972;2022-09-27T05:23:29;99176.63;;;10.61;79.76
54194;BME280;40102;50.906;6.972;2022-09-27T05:25:55;99171.91;;;10.53;80.09
54194;BME280;40102;50.906;6.972;2022-09-27T05:28:21;99168.91;;;10.35;81.14
54194;BME280;40102;50.906;6.972;2022-09-27T05:30:48;99177.03;;;10.34;81.01
54194;BME280;40102;50.906;6.972;2022-09-27T05:33:13;99183.34;;;10.33;80.53
54194;BME280;40102;50.906;6.972;2022-09-27T05:35:39;99175.09;;;10.25;81.46
54194;BME280;40102;50.906;6.972;2022-09-27T05:38:06;99188.44;;;10.25;81.56
54194;BME280;40102;50.906;6.972;2022-09-27T05:40:32;99173.38;;;10.24;81.35
54194;BME280;40102;50.906;6.972;2022-09-27T05:42:57;99189.78;;;10.30;81.37
54194;BME280;40102;50.906;6.972;2022-09-27T05:45:23;99187.25;;;10.40;81.24
54194;BME280;40102;50.906;6.972;2022-09-27T05:47:56;99192.06;;;10.46;80.42
54194;BME280;40102;50.906;6.972;2022-09-27T05:50:26;99191.34;;;10.44;80.06
54194;BME280;40102;50.906;6.972;2022-09-27T05:52:52;99192.72;;;10.38;79.83
54194;BME280;40102;50.906;6.972;2022-09-27T05:55:18;99204.25;;;10.39;79.55
54194;BME280;40102;50.906;6.972;2022-09-27T05:57:59;99206.19;;;10.37;80.26
54194;BME280;40102;50.906;6.972;2022-09-27T06:00:28;99221.00;;;10.41;80.16
54194;BME280;40102;50.906;6.972;2022-09-27T06:02:59;99219.91;;;10.44;79.67
54194;BME280;40102;50.906;6.972;2022-09-27T06:05:26;99213.47;;;10.46;79.58
54194;BME280;40102;50.906;6.972;2022-09-27T06:07:57;99195.84;;;10.44;79.38
54194;BME280;40102;50.906;6.972;2022-09-27T06:10:28;99199.13;;;10.47;79.12
54194;BME280;40102;50.906;6.972;2022-09-27T06:12:58;99200.81;;;10.48;79.70
54194;BME280;40102;50.906;6.972;2022-09-27T06:15:23;99214.31;;;10.58;78.88
54194;BME280;40102;50.906;6.972;2022-09-27T06:17:49;99212.47;;;10.47;79.12
54194;BME280;40102;50.906;6.972;2022-09-27T06:20:15;99202.03;;;10.44;79.44
54194;BME280;40102;50.906;6.972;2022-09-27T06:22:42;99193.69;;;10.37;79.28
54194;BME280;40102;50.906;6.972;2022-09-27T06:25:09;99215.66;;;10.52;79.28
54194;BME280;40102;50.906;6.972;2022-09-27T06:27:37;99211.63;;;10.47;78.93
54194;BME280;40102;50.906;6.972;2022-09-27T06:30:03;99209.69;;;10.49;78.99
54194;BME280;40102;50.906;6.972;2022-09-27T06:32:29;99222.44;;;10.56;79.02
54194;BME280;40102;50.906;6.972;2022-09-27T06:34:54;99211.50;;;10.48;79.35
54194;BME280;40102;50.906;6.972;2022-09-27T06:37:24;99215.03;;;10.49;79.50
54194;BME280;40102;50.906;6.972;2022-09-27T06:39:50;99230.34;;;10.58;79.42
54194;BME280;40102;50.906;6.972;2022-09-27T06:42:17;99217.47;;;10.52;79.26
54194;BME280;40102;50.906;6.972;2022-09-27T06:44:43;99215.41;;;10.55;79.08
54194;BME280;40102;50.906;6.972;2022-09-27T06:47:11;99227.91;;;10.66;78.76
54194;BME280;40102;50.906;6.972;2022-09-27T06:49:37;99218.31;;;10.63;78.63
54194;BME280;40102;50.906;6.972;2022-09-27T06:52:04;99221.84;;;10.64;77.80
54194;BME280;40102;50.906;6.972;2022-09-27T06:54:30;99225.63;;;10.61;77.78
54194;BME280;40102;50.906;6.972;2022-09-27T06:56:55;99240.94;;;10.59;78.39
54194;BME280;40102;50.906;6.972;2022-09-27T06:59:20;99231.44;;;10.44;78.61
54194;BME280;40102;50.906;6.972;2022-09-27T07:02:05;99242.03;;;10.34;78.98
54194;BME280;40102;50.906;6.972;2022-09-27T07:04:31;99245.31;;;10.38;79.43
54194;BME280;40102;50.906;6.972;2022-09-27T07:06:56;99230.25;;;10.26;79.18
54194;BME280;40102;50.906;6.972;2022-09-27T07:09:22;99238.88;;;10.29;78.07
54194;BME280;40102;50.906;6.972;2022-09-27T07:11:47;99242.13;;;10.22;78.84
54194;BME280;40102;50.906;6.972;2022-09-27T07:14:12;99255.25;;;10.25;79.06
54194;BME280;40102;50.906;6.972;2022-09-27T07:16:38;99251.13;;;10.32;79.20
54194;BME280;40102;50.906;6.972;2022-09-27T07:19:04;99259.66;;;10.37;78.67
54194;BME280;40102;50.906;6.972;2022-09-27T07:21:32;99268.97;;;10.43;78.39
54194;BME280;40102;50.906;6.972;2022-09-27T07:23:57;99275.69;;;10.37;78.84
54194;BME280;40102;50.906;6.972;2022-09-27T07:26:23;99260.09;;;10.42;77.47
54194;BME280;40102;50.906;6.972;2022-09-27T07:28:51;99263.06;;;10.39;77.97
54194;BME280;40102;50.906;6.972;2022-09-27T07:31:17;99271.66;;;10.43;77.84
54194;BME280;40102;50.906;6.972;2022-09-27T07:33:43;99265.72;;;10.39;78.06
54194;BME280;40102;50.906;6.972;2022-09-27T07:36:09;99277.13;;;10.52;76.47
54194;BME280;40102;50.906;6.972;2022-09-27T07:38:35;99267.41;;;10.51;76.26
54194;BME280;40102;50.906;6.972;2022-09-27T07:41:08;99266.81;;;10.36;77.50
54194;BME280;40102;50.906;6.972;2022-09-27T07:43:34;99280.91;;;10.38;78.64
54194;BME280;40102;50.906;6.972;2022-09-27T07:45:59;99270.22;;;10.38;78.16
54194;BME280;40102;50.906;6.972;2022-09-27T07:48:25;99282.97;;;10.46;76.62
54194;BME280;40102;50.906;6.972;2022-09-27T07:50:51;99285.28;;;10.51;77.39
54194;BME280;40102;50.906;6.972;2022-09-27T07:53:17;99285.63;;;10.46;76.86
54194;BME280;40102;50.906;6.972;2022-09-27T07:55:42;99285.50;;;10.48;77.12
54194;BME280;40102;50.906;6.972;2022-09-27T07:58:09;99286.75;;;10.55;76.22
54194;BME280;40102;50.906;6.972;2022-09-27T08:00:36;99297.22;;;10.69;75.72
54194;BME280;40102;50.906;6.972;2022-09-27T08:03:06;99304.97;;;10.61;75.99
54194;BME280;40102;50.906;6.972;2022-09-27T08:05:34;99299.25;;;10.54;76.95
54194;BME280;40102;50.906;6.972;2022-09-27T08:08:00;99306.31;;;10.66;76.41
54194;BME280;40102;50.906;6.972;2022-09-27T08:10:26;99307.66;;;10.61;75.48
54194;BME280;40102;50.906;6.972;2022-09-27T08:12:54;99301.94;;;10.54;75.54
54194;BME280;40102;50.906;6.972;2022-09-27T08:15:20;99302.66;;;10.45;76.05
54194;BME280;40102;50.906;6.972;2022-09-27T08:17:45;99308.47;;;10.50;75.75
54194;BME280;40102;50.906;6.972;2022-09-27T08:20:11;99313.09;;;10.48;75.92
54194;BME280;40102;50.906;6.972;2022-09-27T08:22:42;99309.81;;;10.45;74.95
54194;BME280;40102;50.906;6.972;2022-09-27T08:25:08;99319.41;;;10.47;75.82
54194;BME280;40102;50.906;6.972;2022-09-27T08:27:33;99307.25;;;10.43;76.13
54194;BME280;40102;50.906;6.972;2022-09-27T08:29:59;99327.19;;;10.50;76.50
54194;BME280;40102;50.906;6.972;2022-09-27T08:32:24;99318.94;;;10.53;76.31
54194;BME280;40102;50.906;6.972;2022-09-27T08:34:52;99304.09;;;10.49;75.12
54194;BME280;40102;50.906;6.972;2022-09-27T08:37:17;99322.59;;;10.52;75.78
54194;BME280;40102;50.906;6.972;2022-09-27T08:39:42;99320.88;;;10.51;76.30
54194;BME280;40102;50.906;6.972;2022-09-27T08:45:11;99331.09;;;10.57;76.19
54194;BME280;40102;50.906;6.972;2022-09-27T08:47:44;99323.31;;;10.54;76.17
54194;BME280;40102;50.906;6.972;2022-09-27T08:52:47;99321.75;;;10.63;75.32
54194;BME280;40102;50.906;6.972;2022-09-27T08:57:49;99318.84;;;10.66;75.87
54194;BME280;40102;50.906;6.972;2022-09-27T09:00:16;99327.13;;;10.74;75.62
54194;BME280;40102;50.906;6.972;2022-09-27T09:02:45;99320.06;;;10.73;75.94
54194;BME280;40102;50.906;6.972;2022-09-27T09:05:15;99324.31;;;10.76;75.74
54194;BME280;40102;50.906;6.972;2022-09-27T09:16:44;99317.50;;;11.05;73.50
54194;BME280;40102;50.906;6.972;2022-09-27T09:22:32;99318.72;;;11.12;72.39
54194;BME280;40102;50.906;6.972;2022-09-27T09:25:21;99300.50;;;11.06;73.03
54194;BME280;40102;50.906;6.972;2022-09-27T09:35:52;99302.56;;;11.14;73.30
54194;BME280;40102;50.906;6.972;2022-09-27T09:38:32;99300.34;;;11.19;72.44
54194;BME280;40102;50.906;6.972;2022-09-27T09:41:17;99310.44;;;11.26;71.13
54194;BME280;40102;50.906;6.972;2022-09-27T09:43:59;99305.34;;;11.23;71.48
54194;BME280;40102;50.906;6.972;2022-09-27T09:48:57;99305.22;;;11.14;71.10
54194;BME280;40102;50.906;6.972;2022-09-27T09:51:36;99298.16;;;11.13;71.46
54194;BME280;40102;50.906;6.972;2022-09-27T09:54:26;99313.63;;;11.20;72.21
54194;BME280;40102;50.906;6.972;2022-09-27T09:57:01;99315.19;;;11.12;71.74
54194;BME280;40102;50.906;6.972;2022-09-27T09:59:34;99303.41;;;11.14;71.54
54194;BME280;40102;50.906;6.972;2022-09-27T10:02:18;99301.94;;;11.10;71.94
54194;BME280;40102;50.906;6.972;2022-09-27T10:04:45;99296.34;;;11.13;71.76
54194;BME280;40102;50.906;6.972;2022-09-27T10:07:11;99308.75;;;11.14;72.61
54194;BME280;40102;50.906;6.972;2022-09-27T10:09:37;99293.91;;;11.10;72.49
54194;BME280;40102;50.906;6.972;2022-09-27T10:12:03;99291.59;;;11.17;72.31
54194;BME280;40102;50.906;6.972;2022-09-27T10:14:29;99306.56;;;11.19;72.85
54194;BME280;40102;50.906;6.972;2022-09-27T10:16:57;99294.16;;;11.18;72.54
54194;BME280;40102;50.906;6.972;2022-09-27T10:19:29;99293.06;;;11.21;72.38
54194;BME280;40102;50.906;6.972;2022-09-27T10:25:05;99302.06;;;11.20;72.62
54194;BME280;40102;50.906;6.972;2022-09-27T10:27:48;99292.94;;;11.11;72.18
54194;BME280;40102;50.906;6.972;2022-09-27T10:30:40;99293.91;;;11.21;72.46
54194;BME280;40102;50.906;6.972;2022-09-27T10:33:16;99300.72;;;11.25;72.44
54194;BME280;40102;50.906;6.972;2022-09-27T10:35:45;99286.25;;;11.17;71.79
54194;BME280;40102;50.906;6.972;2022-09-27T10:40:41;99273.97;;;11.14;72.17
54194;BME280;40102;50.906;6.972;2022-09-27T10:48:39;99282.81;;;11.26;72.44
54194;BME280;40102;50.906;6.972;2022-09-27T10:53:49;99286.47;;;11.36;73.02
54194;BME280;40102;50.906;6.972;2022-09-27T10:56:34;99288.75;;;11.41;71.14
54194;BME280;40102;50.906;6.972;2022-09-27T10:59:00;99267.09;;;11.44;69.40
54194;BME280;40102;50.906;6.972;2022-09-27T11:01:40;99289.47;;;11.54;69.62
54194;BME280;40102;50.906;6.972;2022-09-27T11:04:36;99261.47;;;11.47;69.44
54194;BME280;40102;50.906;6.972;2022-09-27T11:07:13;99270.84;;;11.52;69.81
54194;BME280;40102;50.906;6.972;2022-09-27T11:09:48;99268.53;;;11.48;70.31
54194;BME280;40102;50.906;6.972;2022-09-27T11:12:15;99285.94;;;11.53;69.81
54194;BME280;40102;50.906;6.972;2022-09-27T11:14:51;99271.22;;;11.48;70.92
54194;BME280;40102;50.906;6.972;2022-09-27T11:17:26;99294.56;;;11.57;68.68
54194;BME280;40102;50.906;6.972;2022-09-27T11:25:54;99281.31;;;11.55;69.22
54194;BME280;40102;50.906;6.972;2022-09-27T11:28:44;99294.81;;;11.54;69.28
54194;BME280;40102;50.906;6.972;2022-09-27T11:39:20;99278.16;;;11.50;68.98
54194;BME280;40102;50.906;6.972;2022-09-27T11:47:27;99270.84;;;11.52;69.22
54194;BME280;40102;50.906;6.972;2022-09-27T11:58:13;99258.78;;;11.58;70.40
54194;BME280;40102;50.906;6.972;2022-09-27T12:04:17;99274.94;;;11.67;69.70
54194;BME280;40102;50.906;6.972;2022-09-27T12:09:54;99255.41;;;11.77;69.38
54194;BME280;40102;50.906;6.972;2022-09-27T12:12:24;99244.09;;;11.73;68.76
54194;BME280;40102;50.906;6.972;2022-09-27T12:14:59;99248.97;;;11.79;66.98
54194;BME280;40102;50.906;6.972;2022-09-27T12:17:47;99256.41;;;11.76;67.76
54194;BME280;40102;50.906;6.972;2022-09-27T12:20:24;99264.22;;;11.79;67.84
54194;BME280;40102;50.906;6.972;2022-09-27T12:22:59;99265.66;;;11.72;68.65
54194;BME280;40102;50.906;6.972;2022-09-27T12:25:29;99269.44;;;11.69;69.75
54194;BME280;40102;50.906;6.972;2022-09-27T12:30:40;99279.47;;;11.56;74.50
54194;BME280;40102;50.906;6.972;2022-09-27T12:35:43;99256.91;;;11.26;77.30
54194;BME280;40102;50.906;6.972;2022-09-27T12:38:17;99262.88;;;11.30;76.83
54194;BME280;40102;50.906;6.972;2022-09-27T12:40:52;99264.81;;;11.28;77.04
54194;BME280;40102;50.906;6.972;2022-09-27T12:43:25;99255.69;;;11.30;76.65
54194;BME280;40102;50.906;6.972;2022-09-27T12:49:39;99262.38;;;11.36;77.24
54194;BME280;40102;50.906;6.972;2022-09-27T12:52:20;99269.91;;;11.42;75.49
54194;BME280;40102;50.906;6.972;2022-09-27T12:58:14;99252.84;;;11.43;76.07
54194;BME280;40102;50.906;6.972;2022-09-27T13:01:06;99260.97;;;11.53;75.68
54194;BME280;40102;50.906;6.972;2022-09-27T13:04:04;99243.22;;;11.52;75.62
54194;BME280;40102;50.906;6.972;2022-09-27T13:07:40;99278.19;;;11.71;72.61
54194;BME280;40102;50.906;6.972;2022-09-27T13:12:25;99283.59;;;11.60;74.94
54194;BME280;40102;50.906;6.972;2022-09-27T13:22:58;99280.66;;;11.63;73.25
54194;BME280;40102;50.906;6.972;2022-09-27T13:25:50;99275.94;;;11.55;72.99
54194;BME280;40102;50.906;6.972;2022-09-27T13:30:56;99282.53;;;11.51;74.79
54194;BME280;40102;50.906;6.972;2022-09-27T13:36:17;99287.53;;;11.45;75.46
54194;BME280;40102;50.906;6.972;2022-09-27T13:46:57;99288.81;;;11.18;75.11
54194;BME280;40102;50.906;6.972;2022-09-27T13:49:32;99270.19;;;11.17;75.39
54194;BME280;40102;50.906;6.972;2022-09-27T13:52:03;99268.00;;;11.22;74.40
54194;BME280;40102;50.906;6.972;2022-09-27T13:56:59;99280.41;;;11.23;74.02
54194;BME280;40102;50.906;6.972;2022-09-27T13:59:44;99278.31;;;11.26;74.46
54194;BME280;40102;50.906;6.972;2022-09-27T14:03:51;99265.19;;;11.23;74.51
54194;BME280;40102;50.906;6.972;2022-09-27T14:05:53;99270.66;;;11.22;73.66
54194;BME280;40102;50.906;6.972;2022-09-27T14:08:35;99267.75;;;11.25;73.65
54194;BME280;40102;50.906;6.972;2022-09-27T14:11:02;99284.03;;;11.33;73.79
54194;BME280;40102;50.906;6.972;2022-09-27T14:13:29;99271.16;;;11.27;74.02
54194;BME280;40102;50.906;6.972;2022-09-27T14:15:59;99270.53;;;11.34;73.86
54194;BME280;40102;50.906;6.972;2022-09-27T14:18:26;99280.47;;;11.44;73.82
54194;BME280;40102;50.906;6.972;2022-09-27T14:21:16;99275.75;;;11.36;74.07
54194;BME280;40102;50.906;6.972;2022-09-27T14:23:42;99273.06;;;11.36;73.97
54194;BME280;40102;50.906;6.972;2022-09-27T14:26:21;99284.72;;;11.46;73.48
54194;BME280;40102;50.906;6.972;2022-09-27T14:28:46;99266.50;;;11.40;73.44
54194;BME280;40102;50.906;6.972;2022-09-27T14:31:14;99270.50;;;11.46;73.37
54194;BME280;40102;50.906;6.972;2022-09-27T14:33:42;99278.41;;;11.47;73.47
54194;BME280;40102;50.906;6.972;2022-09-27T14:36:24;99279.84;;;11.51;72.92
54194;BME280;40102;50.906;6.972;2022-09-27T14:39:35;99285.97;;;11.42;72.28
54194;BME280;40102;50.906;6.972;2022-09-27T14:42:04;99283.31;;;11.31;72.01
54194;BME280;40102;50.906;6.972;2022-09-27T14:44:30;99279.06;;;11.28;72.47
54194;BME280;40102;50.906;6.972;2022-09-27T14:47:17;99284.41;;;11.28;73.03
54194;BME280;40102;50.906;6.972;2022-09-27T14:49:57;99280.50;;;11.32;73.36
54194;BME280;40102;50.906;6.972;2022-09-27T14:52:29;99283.91;;;11.34;73.55
54194;BME280;40102;50.906;6.972;2022-09-27T14:55:04;99294.50;;;11.36;73.41
54194;BME280;40102;50.906;6.972;2022-09-27T14:57:33;99303.47;;;11.46;73.41
54194;BME280;40102;50.906;6.972;2022-09-27T15:00:01;99303.47;;;11.46;73.35
54194;BME280;40102;50.906;6.972;2022-09-27T15:02:38;99308.44;;;11.51;73.48
54194;BME280;40102;50.906;6.972;2022-09-27T15:05:14;99299.81;;;11.47;73.52
54194;BME280;40102;50.906;6.972;2022-09-27T15:07:42;99296.03;;;11.50;73.52
54194;BME280;40102;50.906;6.972;2022-09-27T15:10:13;99303.22;;;11.49;73.42
54194;BME280;40102;50.906;6.972;2022-09-27T15:12:41;99297.28;;;11.46;73.44
54194;BME280;40102;50.906;6.972;2022-09-27T15:15:11;99297.75;;;11.51;73.56
54194;BME280;40102;50.906;6.972;2022-09-27T15:17:42;99296.50;;;11.55;73.66
54194;BME280;40102;50.906;6.972;2022-09-27T15:20:32;99291.78;;;11.47;73.03
54194;BME280;40102;50.906;6.972;2022-09-27T15:22:59;99309.44;;;11.50;73.72
54194;BME280;40102;50.906;6.972;2022-09-27T15:25:33;99303.22;;;11.49;73.64
54194;BME280;40102;50.906;6.972;2022-09-27T15:28:11;99319.16;;;11.51;73.68
54194;BME280;40102;50.906;6.972;2022-09-27T15:30:54;99302.88;;;11.43;73.29
54194;BME280;40102;50.906;6.972;2022-09-27T15:33:28;99305.31;;;11.46;70.67
54194;BME280;40102;50.906;6.972;2022-09-27T15:35:58;99321.00;;;11.50;68.06
54194;BME280;40102;50.906;6.972;2022-09-27T15:38:33;99320.50;;;11.45;65.45
54194;BME280;40102;50.906;6.972;2022-09-27T15:46:28;99292.34;;;11.08;68.40
54194;BME280;40102;50.906;6.972;2022-09-27T15:51:42;99294.53;;;11.02;67.95
54194;BME280;40102;50.906;6.972;2022-09-27T15:54:08;99296.00;;;11.07;68.66